Time;durP1;ratioP1;P1;durP2;ratioP2;P2;SDS_P1;SDS_P2;PMS_P1;PMS_P2;Temp;Humidity;BMP_temperature;BMP_pressure;BME280_temperature;BME280_humidity;BME280_pressure;Samples;Min_cycle;Max_cycle;Signal;HPM_P1;HPM_P2
2022/07/12 06:52:12;;;;;;;4.50;1.50;;;22.80;86.50;;;;;;5049759;27;20401;-46
2022/07/12 06:54:39;;;;;;;8.18;2.58;;;22.80;85.50;;;;;;5046486;28;20049;-47
2022/07/12 06:57:06;;;;;;;5.10;1.95;;;23.00;85.70;;;;;;5050146;28;20480;-46
2022/07/12 06:59:32;;;;;;;8.65;2.50;;;23.10;85.00;;;;;;5047777;28;20033;-49
2022/07/12 07:02:02;;;;;;;7.20;2.20;;;23.30;84.50;;;;;;5048530;28;20041;-49
2022/07/12 07:04:29;;;;;;;11.82;2.85;;;23.50;84.10;;;;;;5040074;28;20077;-49
2022/07/12 07:06:56;;;;;;;6.20;2.00;;;23.60;83.60;;;;;;5047577;28;20037;-46
2022/07/12 07:09:23;;;;;;;3.75;1.48;;;23.70;83.30;;;;;;5042193;28;20045;-52
2022/07/12 07:11:50;;;;;;;14.02;3.95;;;23.90;83.10;;;;;;5038686;28;20061;-48
2022/07/12 07:14:17;;;;;;;8.10;2.80;;;23.90;83.00;;;;;;5046342;28;20100;-49
2022/07/12 07:16:44;;;;;;;3.72;1.33;;;24.00;82.00;;;;;;5035648;28;20057;-50
2022/07/12 07:19:10;;;;;;;6.28;2.40;;;24.10;81.90;;;;;;5043575;28;20041;-49
2022/07/12 07:21:37;;;;;;;5.85;1.40;;;24.10;81.60;;;;;;5043824;28;20038;-49
2022/07/12 07:24:04;;;;;;;10.48;2.97;;;24.30;81.40;;;;;;5041103;28;20038;-49
2022/07/12 07:26:32;;;;;;;3.65;1.50;;;24.30;81.40;;;;;;5043438;28;20128;-53
2022/07/12 07:31:44;;;;;;;21.50;6.88;;;24.50;82.10;;;;;;5032752;28;20544;-47
2022/07/12 07:34:11;;;;;;;16.73;5.53;;;24.50;81.20;;;;;;5047050;28;20046;-51
2022/07/12 07:36:38;;;;;;;5.80;2.28;;;24.60;80.60;;;;;;5035702;28;20033;-52
2022/07/12 07:39:05;;;;;;;13.02;4.13;;;24.70;80.00;;;;;;5046435;28;20075;-52
2022/07/12 07:41:31;;;;;;;18.63;4.50;;;24.80;79.30;;;;;;5048514;28;20037;-49
2022/07/12 07:43:58;;;;;;;14.43;4.80;;;24.90;79.20;;;;;;5044482;28;20514;-49
2022/07/12 07:46:25;;;;;;;14.52;3.78;;;24.90;79.30;;;;;;5037218;28;20492;-49
2022/07/12 07:48:52;;;;;;;16.70;5.40;;;25.10;79.00;;;;;;5036666;28;20101;-49
2022/07/12 07:51:18;;;;;;;9.05;2.60;;;25.20;79.00;;;;;;5045595;28;20049;-48
2022/07/12 07:53:45;;;;;;;3.85;1.48;;;25.30;78.60;;;;;;5029424;28;20076;-50
2022/07/12 07:56:12;;;;;;;4.57;1.70;;;25.50;78.00;;;;;;5031598;28;20050;-51
2022/07/12 07:58:38;;;;;;;17.15;4.28;;;25.70;76.80;;;;;;5045767;28;20095;-50
2022/07/12 08:01:05;;;;;;;5.50;1.45;;;25.90;76.70;;;;;;5046603;28;20037;-51
2022/07/12 08:03:32;;;;;;;10.32;2.42;;;26.10;74.70;;;;;;5027421;28;20364;-48
2022/07/12 08:06:00;;;;;;;5.00;1.60;;;26.30;74.60;;;;;;5026734;28;20504;-49
2022/07/12 08:08:27;;;;;;;5.20;1.20;;;26.40;74.40;;;;;;5028564;28;20033;-48
2022/07/12 08:11:14;;;;;;;6.25;2.28;;;26.50;74.40;;;;;;5034862;28;20104;-48
2022/07/12 08:13:41;;;;;;;8.30;2.38;;;26.70;74.60;;;;;;5029491;28;20319;-51
2022/07/12 08:16:07;;;;;;;7.20;2.28;;;26.80;74.00;;;;;;5024960;28;20056;-50
2022/07/12 08:18:34;;;;;;;6.50;2.25;;;26.90;73.20;;;;;;5027741;28;20051;-49
2022/07/12 08:21:01;;;;;;;9.70;2.70;;;27.00;73.40;;;;;;5026071;28;20443;-51
2022/07/12 08:23:29;;;;;;;2.88;1.17;;;27.10;73.70;;;;;;5031033;28;20084;-53
2022/07/12 08:25:55;;;;;;;13.82;3.00;;;27.30;71.90;;;;;;5026051;28;20068;-48
2022/07/12 08:28:23;;;;;;;7.07;1.33;;;27.40;71.70;;;;;;5024106;28;20088;-53
2022/07/12 08:30:49;;;;;;;4.18;1.33;;;27.30;71.70;;;;;;5015261;28;20053;-51
2022/07/12 08:33:16;;;;;;;4.55;1.45;;;27.40;71.10;;;;;;5019645;28;20485;-50
2022/07/12 08:35:43;;;;;;;2.83;1.45;;;27.50;71.60;;;;;;5022066;28;20050;-49
2022/07/12 08:38:10;;;;;;;6.25;1.75;;;27.60;71.80;;;;;;5023612;28;20052;-49
2022/07/12 08:40:37;;;;;;;4.18;1.85;;;27.80;72.00;;;;;;5024790;28;20041;-51
2022/07/12 08:43:03;;;;;;;5.75;1.95;;;27.90;71.60;;;;;;5016812;28;20064;-50
2022/07/12 08:45:30;;;;;;;5.00;1.10;;;28.00;71.20;;;;;;5034621;28;20037;-51
2022/07/12 08:47:57;;;;;;;5.55;1.20;;;28.00;70.60;;;;;;5016802;28;20477;-49
2022/07/12 08:50:26;;;;;;;3.00;1.48;;;28.00;70.70;;;;;;5020600;28;20112;-50
2022/07/12 08:52:53;;;;;;;4.50;1.45;;;28.10;71.00;;;;;;5031656;28;20654;-49
2022/07/12 08:55:20;;;;;;;2.88;1.40;;;28.10;70.40;;;;;;5029414;28;20042;-49
2022/07/12 08:57:46;;;;;;;4.43;1.48;;;28.00;70.30;;;;;;5020517;28;20107;-52
2022/07/12 09:00:13;;;;;;;5.95;1.15;;;27.90;69.50;;;;;;5030828;28;20508;-50
2022/07/12 09:02:40;;;;;;;4.30;1.23;;;27.90;70.20;;;;;;5020710;28;20091;-48
2022/07/12 09:05:07;;;;;;;3.50;1.20;;;27.80;70.10;;;;;;5026686;28;20033;-49
2022/07/12 09:07:34;;;;;;;3.42;1.20;;;27.70;70.40;;;;;;5014614;28;20041;-47
2022/07/12 09:10:00;;;;;;;6.65;1.77;;;27.70;71.20;;;;;;5027401;28;20049;-49
2022/07/12 09:12:27;;;;;;;2.83;1.30;;;27.60;71.10;;;;;;5024957;28;20092;-52
2022/07/12 09:14:54;;;;;;;3.30;1.55;;;27.60;71.00;;;;;;5032452;28;20061;-51
2022/07/12 09:17:20;;;;;;;6.50;1.40;;;27.60;70.90;;;;;;5025847;28;20041;-50
2022/07/12 09:19:48;;;;;;;3.58;1.35;;;27.50;71.10;;;;;;5020411;28;20046;-48
2022/07/12 09:22:16;;;;;;;3.28;1.20;;;27.60;71.30;;;;;;5024990;28;20045;-52
2022/07/12 09:24:43;;;;;;;2.90;1.30;;;27.60;71.30;;;;;;5024072;28;20041;-55
2022/07/12 09:27:10;;;;;;;5.63;1.38;;;27.60;71.40;;;;;;5027962;28;20042;-53
2022/07/12 09:29:37;;;;;;;3.97;1.15;;;27.70;71.80;;;;;;5034550;28;21479;-50
2022/07/12 09:37:34;;;;;;;5.80;1.30;;;28.10;69.20;;;;;;5013833;28;20041;-51
2022/07/12 09:40:01;;;;;;;5.15;1.58;;;28.30;68.80;;;;;;5026769;28;20072;-53
2022/07/12 09:42:28;;;;;;;5.25;1.60;;;28.40;67.80;;;;;;5026897;28;20488;-51
2022/07/12 09:44:55;;;;;;;5.47;1.13;;;28.50;68.40;;;;;;5023618;28;20041;-53
2022/07/12 09:47:22;;;;;;;6.40;1.45;;;28.60;67.70;;;;;;5020204;28;20034;-51
2022/07/12 09:49:48;;;;;;;8.95;1.25;;;28.70;67.20;;;;;;5023658;28;20072;-53
2022/07/12 17:58:37;;;;;;;6.03;1.40;;;28.70;67.30;;;;;;5069858;28;20781;-50
2022/07/12 18:01:04;;;;;;;5.97;1.83;;;28.50;67.20;;;;;;5059061;28;20044;-48
2022/07/12 18:03:30;;;;;;;5.72;1.42;;;28.50;67.60;;;;;;5050491;28;20045;-52
2022/07/12 18:05:57;;;;;;;8.55;1.48;;;28.60;67.50;;;;;;5052841;28;20514;-48
2022/07/12 18:08:24;;;;;;;4.43;1.45;;;28.60;67.50;;;;;;5048904;28;20104;-54
2022/07/12 18:10:51;;;;;;;6.35;1.42;;;28.70;67.60;;;;;;5050212;28;20140;-46
2022/07/12 18:16:03;;;;;;;6.00;1.50;;;28.80;67.60;;;;;;5050378;28;20037;-51
2022/07/12 18:18:30;;;;;;;4.93;1.42;;;28.80;67.90;;;;;;5049987;28;20037;-52
2022/07/12 18:20:57;;;;;;;8.13;1.50;;;28.70;67.90;;;;;;5050374;28;20497;-49
2022/07/12 18:23:24;;;;;;;4.18;1.38;;;28.70;68.10;;;;;;5054235;28;20099;-49
2022/07/12 18:25:51;;;;;;;4.10;1.10;;;28.60;68.20;;;;;;5049980;28;20033;-47
2022/07/12 18:28:19;;;;;;;7.07;1.40;;;28.60;68.40;;;;;;5050143;28;20101;-50
2022/07/12 18:30:47;;;;;;;4.22;1.20;;;28.60;68.50;;;;;;5049973;28;20045;-48
2022/07/12 18:33:20;;;;;;;8.05;1.50;;;28.50;68.50;;;;;;5049880;28;20055;-52
2022/07/12 18:35:47;;;;;;;6.57;1.83;;;28.50;70.90;;;;;;5050220;28;20314;-52
2022/07/12 18:38:14;;;;;;;5.22;1.58;;;28.40;71.40;;;;;;5049753;28;20037;-49
2022/07/12 18:40:41;;;;;;;3.20;1.33;;;28.30;71.30;;;;;;5049802;28;20041;-50
2022/07/12 18:43:08;;;;;;;3.55;1.30;;;28.30;72.10;;;;;;5049711;28;20037;-53
2022/07/12 18:45:34;;;;;;;3.88;1.30;;;28.20;71.80;;;;;;5049723;28;20499;-50
2022/07/12 18:48:01;;;;;;;4.68;1.30;;;28.20;71.30;;;;;;5048300;28;20045;-54
2022/07/12 18:50:28;;;;;;;11.70;1.60;;;28.10;71.00;;;;;;5049729;28;20112;-51
2022/07/12 18:52:55;;;;;;;5.53;1.63;;;28.00;71.20;;;;;;5055518;28;20045;-52
2022/07/12 18:55:22;;;;;;;5.82;1.30;;;28.00;71.00;;;;;;5045567;28;20047;-52
2022/07/12 18:57:49;;;;;;;7.32;1.50;;;27.90;71.10;;;;;;5048359;28;20046;-50
2022/07/12 19:00:16;;;;;;;6.07;1.30;;;27.90;71.10;;;;;;5049228;28;20037;-50
2022/07/12 19:02:43;;;;;;;8.70;1.60;;;27.80;71.10;;;;;;5052588;28;20037;-49
2022/07/12 19:05:10;;;;;;;8.43;1.75;;;27.80;71.30;;;;;;5049864;28;20145;-50
2022/07/12 19:07:37;;;;;;;6.50;1.50;;;27.80;71.50;;;;;;5050777;28;20049;-50
2022/07/12 19:10:03;;;;;;;8.75;1.70;;;27.70;71.90;;;;;;5037587;28;20374;-52
2022/07/12 19:12:34;;;;;;;4.65;1.38;;;27.70;71.80;;;;;;5036006;28;20072;-49
2022/07/12 19:15:01;;;;;;;3.90;1.40;;;27.60;71.90;;;;;;5039410;28;20103;-52
2022/07/12 19:17:28;;;;;;;5.65;1.80;;;27.60;72.00;;;;;;5035925;28;20033;-55
2022/07/12 19:19:55;;;;;;;4.18;1.60;;;27.50;72.10;;;;;;5035854;28;20045;-53
2022/07/12 19:22:23;;;;;;;6.43;1.80;;;27.50;72.10;;;;;;5035673;28;20443;-51
2022/07/12 19:24:50;;;;;;;4.20;1.73;;;27.50;72.30;;;;;;5034320;28;20045;-47
2022/07/12 19:27:16;;;;;;;6.47;1.90;;;27.50;72.10;;;;;;5035669;28;20052;-52
2022/07/12 19:29:43;;;;;;;5.93;1.70;;;27.50;72.10;;;;;;5035180;28;20041;-53
2022/07/12 19:32:10;;;;;;;3.85;1.75;;;27.40;72.30;;;;;;5035508;28;20550;-49
2022/07/12 19:34:37;;;;;;;4.93;1.52;;;27.40;72.40;;;;;;5035422;28;20038;-51
2022/07/12 19:37:04;;;;;;;5.13;1.73;;;27.30;72.50;;;;;;5035416;28;20463;-56
2022/07/12 19:39:31;;;;;;;5.25;1.85;;;27.30;72.60;;;;;;5035449;28;20045;-53
2022/07/12 19:41:58;;;;;;;9.50;1.60;;;27.20;72.80;;;;;;5035233;28;20042;-49
2022/07/12 19:44:24;;;;;;;3.20;1.35;;;27.10;72.90;;;;;;5036308;28;20493;-54
2022/07/12 19:46:51;;;;;;;4.40;1.75;;;27.10;73.00;;;;;;5033548;28;20049;-50
2022/07/12 19:49:18;;;;;;;3.85;1.67;;;27.00;73.20;;;;;;5035638;28;20056;-48
2022/07/12 19:51:45;;;;;;;5.38;2.15;;;27.00;73.90;;;;;;5035282;28;20041;-50
2022/07/12 19:54:12;;;;;;;6.10;1.80;;;26.90;74.30;;;;;;5035126;28;20044;-45
2022/07/12 19:56:38;;;;;;;4.05;1.60;;;26.90;75.00;;;;;;5034798;28;20042;-53
2022/07/12 19:59:05;;;;;;;7.40;2.22;;;26.80;74.60;;;;;;5035085;28;20037;-51
2022/07/12 20:01:32;;;;;;;6.43;1.55;;;26.80;74.40;;;;;;5033857;28;20107;-49
2022/07/12 20:03:59;;;;;;;4.93;1.35;;;26.70;75.10;;;;;;5034893;28;20041;-52
2022/07/12 20:06:26;;;;;;;6.97;1.52;;;26.60;74.30;;;;;;5034856;28;20043;-48
2022/07/12 20:08:53;;;;;;;7.30;1.73;;;26.50;74.40;;;;;;5038272;28;20488;-49
2022/07/12 20:11:20;;;;;;;5.40;1.80;;;26.50;74.50;;;;;;5034744;28;20041;-49
2022/07/12 20:13:47;;;;;;;4.70;1.70;;;26.40;74.30;;;;;;5036412;28;20476;-51
2022/07/12 20:16:14;;;;;;;5.60;1.58;;;26.40;74.90;;;;;;5034746;28;20091;-51
2022/07/12 20:18:41;;;;;;;6.22;1.55;;;26.40;74.30;;;;;;5035323;28;20106;-52
2022/07/12 20:21:09;;;;;;;4.57;1.45;;;26.40;74.20;;;;;;5033828;28;20128;-47
2022/07/12 20:23:36;;;;;;;3.53;1.77;;;26.40;74.30;;;;;;5034967;28;20051;-53
2022/07/12 20:26:03;;;;;;;5.70;1.90;;;26.40;74.30;;;;;;5033540;28;20050;-50
2022/07/12 20:28:30;;;;;;;6.97;1.65;;;26.30;74.50;;;;;;5034593;28;20148;-48
2022/07/12 20:30:57;;;;;;;3.13;1.50;;;26.30;74.60;;;;;;5037062;28;20075;-50
2022/07/12 20:36:09;;;;;;;3.83;1.70;;;26.30;74.80;;;;;;5035951;28;20122;-49
2022/07/12 20:38:35;;;;;;;2.92;1.52;;;26.20;74.70;;;;;;5034208;28;20068;-48
2022/07/12 20:41:05;;;;;;;5.97;1.65;;;26.20;74.80;;;;;;5035644;28;20120;-49
2022/07/12 20:43:38;;;;;;;7.18;1.90;;;26.20;75.00;;;;;;5034510;28;20447;-52
2022/07/12 20:46:05;;;;;;;6.03;1.70;;;26.20;74.90;;;;;;5034048;28;20392;-50
2022/07/12 20:48:32;;;;;;;3.58;1.60;;;26.10;75.00;;;;;;5034124;28;20048;-46
2022/07/12 20:50:58;;;;;;;9.88;1.45;;;26.10;75.10;;;;;;5038950;28;20459;-49
2022/07/12 20:53:25;;;;;;;5.97;1.88;;;26.10;75.40;;;;;;5034054;28;20045;-52
2022/07/12 20:55:53;;;;;;;4.90;1.60;;;26.00;75.80;;;;;;5033943;28;20041;-50
2022/07/12 20:58:19;;;;;;;6.47;1.85;;;25.90;75.90;;;;;;5032980;28;20049;-50
2022/07/12 21:00:46;;;;;;;6.45;1.80;;;26.00;76.10;;;;;;5034817;28;20396;-52
2022/07/12 21:03:13;;;;;;;5.75;1.83;;;25.90;75.90;;;;;;5037812;28;20040;-50
2022/07/12 21:05:40;;;;;;;3.38;1.67;;;25.90;76.20;;;;;;5032544;28;20041;-49
2022/07/12 21:08:10;;;;;;;7.55;1.80;;;25.80;76.20;;;;;;5033737;28;20052;-52
2022/07/12 21:10:37;;;;;;;5.05;1.55;;;25.80;76.50;;;;;;5034040;28;20045;-50
2022/07/12 21:13:04;;;;;;;3.65;1.75;;;25.80;76.40;;;;;;5033777;28;20369;-51
2022/07/12 21:15:31;;;;;;;5.32;1.90;;;25.80;76.50;;;;;;5033052;28;20045;-51
2022/07/12 21:17:57;;;;;;;5.20;1.60;;;25.80;76.40;;;;;;5033001;28;20489;-50
2022/07/12 21:20:24;;;;;;;3.88;1.70;;;25.80;76.60;;;;;;5031999;28;20049;-52
2022/07/12 21:22:51;;;;;;;4.95;1.55;;;25.80;76.60;;;;;;5032506;28;20037;-52
2022/07/12 21:25:18;;;;;;;5.53;1.85;;;25.80;76.80;;;;;;5033109;28;20493;-50
2022/07/12 21:27:46;;;;;;;3.47;1.80;;;25.80;76.60;;;;;;5032978;28;20124;-50
2022/07/12 21:30:12;;;;;;;7.13;1.73;;;25.80;76.80;;;;;;5032733;28;20045;-49
2022/07/12 21:32:39;;;;;;;4.03;1.98;;;25.70;77.10;;;;;;5032998;28;20041;-49
2022/07/12 21:35:09;;;;;;;6.28;1.77;;;25.70;77.10;;;;;;5034694;28;20521;-51
2022/07/12 21:37:36;;;;;;;3.53;1.83;;;25.70;77.10;;;;;;5033221;28;20485;-51
2022/07/12 21:40:03;;;;;;;6.00;1.85;;;25.70;77.50;;;;;;5033219;28;20072;-48
2022/07/12 21:42:30;;;;;;;7.55;1.98;;;25.60;77.40;;;;;;5034612;28;20049;-47
2022/07/12 21:44:56;;;;;;;4.97;1.73;;;25.60;77.40;;;;;;5027359;28;20110;-49
2022/07/12 21:47:24;;;;;;;9.02;2.00;;;25.60;77.50;;;;;;5032781;28;20045;-49
2022/07/12 21:49:51;;;;;;;5.78;1.88;;;25.60;77.70;;;;;;5033201;28;20045;-49
2022/07/12 21:52:17;;;;;;;4.43;1.88;;;25.50;77.60;;;;;;5032891;28;20042;-52
2022/07/12 21:54:44;;;;;;;5.93;1.90;;;25.50;78.40;;;;;;5033129;28;20042;-49
2022/07/12 21:57:11;;;;;;;7.57;1.75;;;25.50;77.90;;;;;;5032685;28;20053;-49
2022/07/12 21:59:38;;;;;;;5.05;1.80;;;25.40;78.10;;;;;;5031961;28;20097;-52
2022/07/12 22:02:04;;;;;;;4.95;1.92;;;25.40;78.20;;;;;;5032512;28;20042;-50
2022/07/12 22:04:31;;;;;;;6.13;1.90;;;25.40;78.30;;;;;;5031629;28;20124;-49
2022/07/12 22:06:58;;;;;;;3.85;1.70;;;25.40;78.30;;;;;;5032726;28;20549;-47
2022/07/12 22:09:24;;;;;;;3.75;2.00;;;25.30;78.40;;;;;;5032732;28;20095;-50
2022/07/12 22:11:51;;;;;;;12.77;1.90;;;25.40;78.60;;;;;;5032948;28;20071;-50
2022/07/12 22:14:18;;;;;;;7.20;2.10;;;25.30;78.50;;;;;;5032656;28;20049;-51
2022/07/12 22:16:45;;;;;;;4.70;2.03;;;25.30;78.70;;;;;;5032882;28;20538;-50
2022/07/12 22:19:11;;;;;;;4.07;1.98;;;25.30;78.70;;;;;;5032697;28;20045;-50
2022/07/12 22:21:38;;;;;;;4.60;2.17;;;25.20;78.60;;;;;;5032865;28;20045;-53
2022/07/12 22:24:05;;;;;;;10.32;1.95;;;25.20;78.70;;;;;;5032730;28;20096;-51
2022/07/12 22:26:32;;;;;;;4.18;1.70;;;25.20;78.80;;;;;;5032896;28;20060;-53
2022/07/12 22:28:58;;;;;;;5.22;1.90;;;25.20;79.00;;;;;;5036984;28;20071;-49
2022/07/12 22:31:25;;;;;;;7.10;1.85;;;25.20;79.10;;;;;;5032661;28;20037;-48
2022/07/12 22:33:52;;;;;;;4.45;1.85;;;25.20;79.40;;;;;;5032560;28;20041;-49
2022/07/12 22:36:19;;;;;;;6.78;2.00;;;25.10;79.40;;;;;;5032843;28;20033;-48
2022/07/12 22:38:45;;;;;;;5.68;2.10;;;25.10;79.40;;;;;;5032550;28;20049;-48
2022/07/12 22:41:12;;;;;;;5.50;2.30;;;25.10;79.60;;;;;;5036796;28;20115;-48
2022/07/12 22:43:39;;;;;;;2.17;1.38;;;25.00;79.40;;;;;;5033362;28;20084;-51
